createdAt,value
2022-09-02T00:01:28.045Z,17.20
2022-09-02T00:04:00.926Z,17.10
2022-09-02T00:06:28.882Z,17.10
2022-09-02T00:08:56.915Z,17.00
2022-09-02T00:11:27.371Z,16.90
2022-09-02T00:13:56.208Z,16.90
2022-09-02T00:16:24.970Z,16.80
2022-09-02T00:18:53.757Z,16.70
2022-09-02T00:21:21.276Z,16.70
2022-09-02T00:23:48.858Z,16.70
2022-09-02T00:26:15.787Z,16.60
2022-09-02T00:28:44.322Z,16.50
2022-09-02T00:31:19.123Z,16.40
2022-09-02T00:33:45.877Z,16.40
2022-09-02T00:36:13.508Z,16.40
2022-09-02T00:38:40.316Z,16.30
2022-09-02T00:41:10.249Z,16.20
2022-09-02T00:43:58.918Z,16.20
2022-09-02T00:46:28.419Z,16.10
2022-09-02T00:49:25.682Z,16.10
2022-09-02T00:52:14.002Z,16.00
2022-09-02T00:55:00.707Z,16.00
2022-09-02T00:57:32.162Z,15.90
2022-09-02T01:00:20.352Z,16.00
2022-09-02T01:02:52.580Z,16.00
2022-09-02T01:05:20.193Z,16.00
2022-09-02T01:07:47.464Z,16.00
2022-09-02T01:10:18.934Z,16.00
2022-09-02T01:12:46.012Z,16.00
2022-09-02T01:15:14.507Z,16.00
2022-09-02T01:17:47.896Z,16.00
2022-09-02T01:20:19.191Z,16.00
2022-09-02T01:22:48.537Z,16.00
2022-09-02T01:25:19.456Z,16.00
2022-09-02T01:27:47.127Z,16.00
2022-09-02T01:30:22.964Z,16.00
2022-09-02T01:32:50.625Z,16.00
2022-09-02T01:35:18.107Z,16.00
2022-09-02T01:37:54.759Z,16.00
2022-09-02T01:40:24.319Z,16.00
2022-09-02T01:42:59.271Z,16.00
2022-09-02T01:45:26.242Z,16.00
2022-09-02T01:47:52.974Z,16.00
2022-09-02T01:50:19.704Z,16.00
2022-09-02T01:52:46.640Z,16.00
2022-09-02T01:55:13.765Z,15.90
2022-09-02T01:57:41.307Z,15.90
2022-09-02T02:00:11.881Z,15.90
2022-09-02T02:02:41.400Z,15.90
2022-09-02T02:05:11.119Z,15.90
2022-09-02T02:07:39.748Z,15.80
2022-09-02T02:10:07.979Z,15.80
2022-09-02T02:12:35.245Z,15.80
2022-09-02T02:15:15.411Z,15.80
2022-09-02T02:17:42.143Z,15.80
2022-09-02T02:20:10.821Z,15.80
2022-09-02T02:22:37.881Z,15.80
2022-09-02T02:25:06.150Z,15.70
2022-09-02T02:27:32.908Z,15.70
2022-09-02T02:30:06.238Z,15.70
2022-09-02T02:32:33.264Z,15.70
2022-09-02T02:35:01.772Z,15.70
2022-09-02T02:37:29.476Z,15.60
2022-09-02T02:39:57.372Z,15.60
2022-09-02T02:42:26.825Z,15.60
2022-09-02T02:44:53.648Z,15.60
2022-09-02T02:47:20.400Z,15.60
2022-09-02T02:49:47.150Z,15.60
2022-09-02T02:52:14.724Z,15.50
2022-09-02T02:54:42.604Z,15.50
2022-09-02T02:57:10.564Z,15.50
2022-09-02T02:59:37.817Z,15.40
2022-09-02T03:02:07.032Z,15.40
2022-09-02T03:04:35.509Z,15.40
2022-09-02T03:07:03.005Z,15.30
2022-09-02T03:09:31.275Z,15.30
2022-09-02T03:11:58.367Z,15.20
2022-09-02T03:14:26.146Z,15.20
2022-09-02T03:16:53.103Z,15.10
2022-09-02T03:19:20.035Z,15.00
2022-09-02T03:21:46.760Z,15.00
2022-09-02T03:24:13.534Z,15.00
2022-09-02T03:26:42.872Z,14.90
2022-09-02T03:29:10.971Z,14.90
2022-09-02T03:31:38.317Z,14.80
2022-09-02T03:34:06.898Z,14.80
2022-09-02T03:36:38.875Z,14.80
2022-09-02T03:39:10.032Z,14.80
2022-09-02T03:41:41.133Z,14.80
2022-09-02T03:44:08.824Z,14.80
2022-09-02T03:46:35.615Z,14.80
2022-09-02T03:49:04.153Z,14.80
2022-09-02T03:51:31.706Z,14.70
2022-09-02T03:53:58.621Z,14.70
2022-09-02T03:56:26.604Z,14.70
2022-09-02T03:58:53.492Z,14.70
2022-09-02T04:01:27.913Z,14.70
2022-09-02T04:03:56.698Z,14.70
2022-09-02T04:06:25.071Z,14.60
2022-09-02T04:08:55.952Z,14.60
2022-09-02T04:11:23.736Z,14.60
2022-09-02T04:13:53.492Z,14.50
2022-09-02T04:16:28.990Z,14.40
2022-09-02T04:19:03.923Z,14.40
2022-09-02T04:21:34.678Z,14.40
2022-09-02T04:24:01.997Z,14.40
2022-09-02T04:26:29.688Z,14.40
2022-09-02T04:29:01.808Z,14.40
2022-09-02T04:31:32.734Z,14.40
2022-09-02T04:34:00.696Z,14.30
2022-09-02T04:36:30.882Z,14.30
2022-09-02T04:39:00.333Z,14.30
2022-09-02T04:41:31.021Z,14.30
2022-09-02T04:44:02.616Z,14.30
2022-09-02T04:46:35.005Z,14.30
2022-09-02T04:49:04.478Z,14.30
2022-09-02T04:51:32.816Z,14.30
2022-09-02T04:54:01.736Z,14.30
2022-09-02T04:56:32.109Z,14.30
2022-09-02T04:59:01.011Z,14.30
2022-09-02T05:01:32.474Z,14.30
2022-09-02T05:04:07.437Z,14.30
2022-09-02T05:06:42.000Z,14.30
2022-09-02T05:09:14.270Z,14.30
2022-09-02T05:11:41.644Z,14.30
2022-09-02T05:14:10.147Z,14.30
2022-09-02T05:16:40.469Z,14.30
2022-09-02T05:19:12.540Z,14.20
2022-09-02T05:21:44.667Z,14.20
2022-09-02T05:24:16.156Z,14.20
2022-09-02T05:26:44.796Z,14.20
2022-09-02T05:29:14.121Z,14.20
2022-09-02T05:31:42.389Z,14.20
2022-09-02T05:34:13.971Z,14.30
2022-09-02T05:36:40.888Z,14.40
2022-09-02T05:39:07.836Z,14.40
2022-09-02T05:41:35.510Z,14.40
2022-09-02T05:44:05.252Z,14.50
2022-09-02T05:46:36.752Z,14.50
2022-09-02T05:49:17.314Z,14.60
2022-09-02T05:51:55.076Z,14.60
2022-09-02T05:54:30.312Z,14.70
2022-09-02T05:57:02.655Z,14.80
2022-09-02T05:59:30.664Z,14.80
2022-09-02T06:01:59.703Z,14.90
2022-09-02T06:04:54.353Z,15.00
2022-09-02T06:07:23.288Z,15.00
2022-09-02T06:09:52.500Z,15.10
2022-09-02T06:12:23.523Z,15.20
2022-09-02T06:14:50.668Z,15.30
2022-09-02T06:17:19.933Z,15.30
2022-09-02T06:19:52.738Z,15.40
2022-09-02T06:22:22.082Z,15.50
2022-09-02T06:24:49.110Z,15.70
2022-09-02T06:27:20.839Z,15.80
2022-09-02T06:29:50.977Z,15.90
2022-09-02T06:32:20.939Z,16.00
2022-09-02T06:34:49.890Z,16.20
2022-09-02T06:37:17.043Z,16.20
2022-09-02T06:39:46.663Z,16.40
2022-09-02T06:42:18.935Z,16.50
2022-09-02T06:45:02.105Z,16.50
2022-09-02T06:47:28.897Z,16.60
2022-09-02T06:49:56.106Z,16.70
2022-09-02T06:52:22.847Z,16.80
2022-09-02T06:54:51.141Z,16.90
2022-09-02T06:57:19.103Z,17.00
2022-09-02T06:59:49.586Z,17.10
2022-09-02T07:02:19.311Z,17.20
2022-09-02T07:05:05.323Z,17.30
2022-09-02T07:07:32.080Z,17.30
2022-09-02T07:10:08.624Z,17.30
2022-09-02T07:12:40.458Z,17.40
2022-09-02T07:15:13.870Z,17.40
2022-09-02T07:17:42.130Z,17.60
2022-09-02T07:20:17.599Z,17.70
2022-09-02T07:25:22.594Z,17.80
2022-09-02T07:27:52.140Z,17.90
2022-09-02T07:30:19.176Z,18.00
2022-09-02T07:32:49.336Z,18.00
2022-09-02T07:35:17.080Z,18.00
2022-09-02T07:37:45.580Z,18.10
2022-09-02T07:40:13.548Z,18.20
2022-09-02T07:42:40.452Z,18.20
2022-09-02T07:45:09.218Z,18.30
2022-09-02T07:47:39.100Z,18.30
2022-09-02T07:50:22.199Z,18.30
2022-09-02T07:52:57.846Z,18.30
2022-09-02T07:55:27.102Z,18.40
2022-09-02T07:57:55.522Z,18.40
2022-09-02T08:00:27.325Z,18.50
2022-09-02T08:02:55.522Z,18.60
2022-09-02T08:05:28.258Z,18.60
2022-09-02T08:07:55.093Z,18.70
2022-09-02T08:10:24.899Z,18.80
2022-09-02T08:12:51.911Z,18.80
2022-09-02T08:15:20.275Z,18.90
2022-09-02T08:17:48.708Z,19.00
2022-09-02T08:20:17.264Z,19.00
2022-09-02T08:22:47.962Z,19.10
2022-09-02T08:25:21.373Z,19.20
2022-09-02T08:27:48.304Z,19.30
2022-09-02T08:30:15.688Z,19.50
2022-09-02T08:32:42.605Z,19.60
2022-09-02T08:35:10.403Z,19.70
2022-09-02T08:37:37.917Z,19.80
2022-09-02T08:40:08.696Z,19.90
2022-09-02T08:42:41.959Z,20.00
2022-09-02T08:45:13.314Z,20.10
2022-09-02T08:47:44.131Z,20.20
2022-09-02T08:50:15.257Z,20.30
2022-09-02T08:53:04.351Z,20.40
2022-09-02T08:55:44.311Z,20.50
2022-09-02T08:58:16.744Z,20.60
2022-09-02T09:00:51.338Z,20.70
2022-09-02T09:03:39.619Z,20.70
2022-09-02T09:06:52.163Z,20.80
2022-09-02T09:09:26.440Z,21.00
2022-09-02T09:11:53.286Z,21.10
2022-09-02T09:14:28.699Z,21.20
2022-09-02T09:17:01.619Z,21.30
2022-09-02T09:19:35.343Z,21.40
2022-09-02T09:22:03.691Z,21.50
2022-09-02T09:24:39.168Z,21.60
2022-09-02T09:27:17.593Z,21.80
2022-09-02T09:29:44.940Z,21.90
2022-09-02T09:32:26.265Z,22.20
2022-09-02T09:34:52.954Z,22.50
2022-09-02T09:37:36.160Z,22.80
2022-09-02T09:40:26.110Z,23.10
2022-09-02T09:43:06.072Z,23.40
2022-09-02T09:45:51.477Z,23.70
2022-09-02T09:48:31.623Z,24.00
2022-09-02T09:50:58.435Z,24.10
2022-09-02T09:53:35.858Z,24.00
2022-09-02T09:56:06.645Z,23.90
2022-09-02T09:58:42.258Z,23.90
2022-09-02T10:01:19.017Z,23.80
2022-09-02T10:03:53.075Z,23.60
2022-09-02T10:06:20.117Z,23.50
2022-09-02T10:08:58.263Z,23.60
2022-09-02T10:11:38.951Z,23.60
2022-09-02T10:14:10.045Z,23.70
2022-09-02T10:16:58.680Z,23.70
2022-09-02T10:19:37.180Z,23.80
2022-09-02T10:22:38.430Z,23.90
2022-09-02T10:25:58.164Z,24.10
2022-09-02T10:28:43.367Z,24.20
2022-09-02T10:31:16.604Z,24.40
2022-09-02T10:34:18.721Z,24.70
2022-09-02T10:37:03.604Z,25.10
2022-09-02T10:39:57.971Z,25.50
2022-09-02T10:42:34.569Z,26.00
2022-09-02T10:45:19.904Z,26.40
2022-09-02T10:48:13.115Z,26.80
2022-09-02T10:50:50.192Z,27.10
2022-09-02T10:53:48.615Z,27.40
2022-09-02T10:56:37.295Z,27.60
2022-09-02T10:59:16.678Z,27.80
2022-09-02T11:01:58.562Z,27.90
2022-09-02T11:04:46.212Z,28.10
2022-09-02T11:07:19.756Z,28.10
2022-09-02T11:09:54.356Z,28.10
2022-09-02T11:12:34.927Z,28.10
2022-09-02T11:15:21.981Z,28.10
2022-09-02T11:17:56.320Z,28.20
2022-09-02T11:20:50.728Z,28.40
2022-09-02T11:23:41.832Z,28.40
2022-09-02T11:26:18.411Z,28.70
2022-09-02T11:29:12.996Z,28.90
2022-09-02T11:32:10.171Z,28.90
2022-09-02T11:34:49.467Z,29.10
2022-09-02T11:37:40.552Z,29.10
2022-09-02T11:40:39.193Z,29.10
2022-09-02T11:43:43.215Z,29.10
2022-09-02T11:46:38.058Z,29.10
2022-09-02T11:49:29.992Z,29.00
2022-09-02T11:52:11.661Z,29.00
2022-09-02T11:54:46.414Z,28.80
2022-09-02T11:57:21.047Z,28.80
2022-09-02T11:59:53.606Z,28.80
2022-09-02T12:02:33.332Z,28.70
2022-09-02T12:05:30.151Z,28.50
2022-09-02T12:07:59.711Z,28.50
2022-09-02T12:10:45.475Z,28.50
2022-09-02T12:13:43.385Z,28.50
2022-09-02T12:16:13.011Z,28.60
2022-09-02T12:18:42.327Z,28.60
2022-09-02T12:21:16.501Z,28.50
2022-09-02T12:23:53.083Z,28.50
2022-09-02T12:26:21.903Z,28.40
2022-09-02T12:28:50.602Z,28.30
2022-09-02T12:31:40.555Z,28.10
2022-09-02T12:34:25.747Z,28.00
2022-09-02T12:36:54.741Z,27.70
2022-09-02T12:39:31.889Z,27.50
2022-09-02T12:42:10.929Z,27.30
2022-09-02T12:44:58.811Z,27.10
2022-09-02T12:47:50.013Z,26.80
2022-09-02T12:51:02.639Z,26.80
2022-09-02T12:53:50.502Z,26.70
2022-09-02T12:56:23.404Z,26.60
2022-09-02T12:59:00.123Z,26.70
2022-09-02T13:01:47.653Z,26.70
2022-09-02T13:04:30.599Z,26.70
